createdAt,value
2019-01-30T00:01:37.323Z,106.60
2019-01-30T00:04:05.389Z,106.17
2019-01-30T00:06:32.955Z,101.97
2019-01-30T00:09:00.408Z,109.53
2019-01-30T00:11:27.780Z,135.82
2019-01-30T00:13:55.204Z,160.23
2019-01-30T00:16:22.639Z,205.23
2019-01-30T00:18:50.007Z,170.57
2019-01-30T00:21:17.529Z,182.10
2019-01-30T00:23:44.970Z,136.75
2019-01-30T00:26:12.434Z,167.10
2019-01-30T00:28:39.910Z,169.57
2019-01-30T00:31:07.352Z,199.03
2019-01-30T00:33:34.899Z,160.73
2019-01-30T00:36:02.468Z,115.47
2019-01-30T00:38:29.896Z,124.27
2019-01-30T00:40:57.320Z,108.00
2019-01-30T00:43:24.757Z,145.90
2019-01-30T00:45:52.327Z,122.03
2019-01-30T00:48:19.786Z,152.80
2019-01-30T00:50:47.276Z,147.97
2019-01-30T00:53:14.705Z,145.53
2019-01-30T00:55:42.178Z,168.30
2019-01-30T00:58:09.619Z,171.13
2019-01-30T01:00:37.240Z,128.93
2019-01-30T01:03:04.926Z,130.40
2019-01-30T01:05:32.790Z,143.27
2019-01-30T01:08:00.348Z,155.33
2019-01-30T01:10:27.771Z,177.40
2019-01-30T01:12:55.223Z,138.63
2019-01-30T01:15:22.666Z,138.63
2019-01-30T01:17:50.099Z,144.97
2019-01-30T01:20:17.840Z,143.13
2019-01-30T01:22:45.622Z,135.70
2019-01-30T01:25:14.323Z,142.70
2019-01-30T01:27:42.200Z,123.33
2019-01-30T01:30:24.842Z,169.33
2019-01-30T01:32:46.921Z,159.20
2019-01-30T01:35:14.555Z,156.87
2019-01-30T01:37:42.002Z,148.63
2019-01-30T01:40:11.448Z,204.37
2019-01-30T01:42:38.932Z,191.03
2019-01-30T01:45:08.605Z,170.53
2019-01-30T01:47:36.193Z,167.53
2019-01-30T01:50:05.541Z,170.80
2019-01-30T01:52:32.971Z,126.43
2019-01-30T01:55:00.386Z,156.70
2019-01-30T01:57:27.825Z,147.73
2019-01-30T01:59:55.307Z,163.93
2019-01-30T02:02:22.745Z,164.30
2019-01-30T02:04:50.250Z,158.50
2019-01-30T02:07:17.722Z,136.33
2019-01-30T02:09:45.186Z,135.27
2019-01-30T02:12:12.669Z,118.03
2019-01-30T02:14:40.070Z,113.40
2019-01-30T02:17:07.502Z,96.23
2019-01-30T02:19:34.961Z,100.70
2019-01-30T02:22:02.356Z,98.73
2019-01-30T02:24:29.783Z,96.30
2019-01-30T02:26:57.235Z,90.43
2019-01-30T02:29:24.596Z,99.33
2019-01-30T02:31:52.054Z,91.93
2019-01-30T02:34:19.536Z,82.23
2019-01-30T02:36:55.976Z,86.73
2019-01-30T02:39:23.665Z,102.83
2019-01-30T02:41:51.494Z,89.37
2019-01-30T02:44:18.946Z,86.13
2019-01-30T02:46:46.467Z,98.97
2019-01-30T02:49:13.952Z,93.87
2019-01-30T02:51:41.326Z,98.90
2019-01-30T02:54:08.810Z,98.40
2019-01-30T02:56:36.265Z,94.00
2019-01-30T02:59:03.791Z,92.17
2019-01-30T03:01:33.122Z,103.53
2019-01-30T03:04:00.529Z,87.67
2019-01-30T03:06:27.969Z,118.23
2019-01-30T03:08:55.403Z,110.83
2019-01-30T03:11:22.827Z,97.70
2019-01-30T03:13:50.267Z,114.87
2019-01-30T03:16:17.838Z,99.73
2019-01-30T03:18:45.292Z,109.60
2019-01-30T03:21:12.700Z,91.53
2019-01-30T03:23:40.160Z,109.83
2019-01-30T03:26:07.602Z,88.13
2019-01-30T03:28:35.010Z,92.37
2019-01-30T03:31:17.012Z,77.90
2019-01-30T03:33:31.928Z,89.40
2019-01-30T03:35:59.367Z,97.00
2019-01-30T03:38:26.793Z,101.33
2019-01-30T03:40:54.208Z,68.10
2019-01-30T03:43:21.630Z,65.33
2019-01-30T03:45:49.254Z,63.77
2019-01-30T03:48:16.806Z,48.70
2019-01-30T03:50:44.293Z,42.47
2019-01-30T03:53:11.672Z,20.40
2019-01-30T03:55:39.083Z,25.47
2019-01-30T03:58:06.507Z,22.93
2019-01-30T04:00:33.886Z,44.73
2019-01-30T04:03:01.411Z,39.43
2019-01-30T04:05:28.869Z,40.20
2019-01-30T04:07:56.309Z,42.90
2019-01-30T04:10:23.809Z,76.83
2019-01-30T04:12:51.579Z,68.27
2019-01-30T04:15:19.244Z,76.67
2019-01-30T04:17:46.749Z,73.47
2019-01-30T04:20:16.433Z,78.17
2019-01-30T04:22:44.039Z,68.47
2019-01-30T04:25:11.580Z,67.13
2019-01-30T04:27:39.036Z,66.43
2019-01-30T04:30:10.152Z,71.57
2019-01-30T04:32:37.747Z,74.03
2019-01-30T04:35:05.610Z,75.50
2019-01-30T04:37:33.030Z,62.53
2019-01-30T04:40:00.476Z,79.87
2019-01-30T04:42:27.964Z,73.90
2019-01-30T04:44:55.389Z,70.67
2019-01-30T04:47:22.954Z,67.83
2019-01-30T04:49:50.472Z,70.30
2019-01-30T04:52:17.914Z,75.33
2019-01-30T04:54:45.317Z,57.40
2019-01-30T04:57:12.805Z,62.97
2019-01-30T04:59:40.260Z,57.13
2019-01-30T05:02:07.715Z,56.47
2019-01-30T05:04:35.113Z,69.20
2019-01-30T05:07:02.549Z,64.83
2019-01-30T05:09:29.953Z,57.47
2019-01-30T05:11:57.492Z,56.60
2019-01-30T05:14:24.898Z,45.73
2019-01-30T05:16:52.373Z,48.07
2019-01-30T05:19:19.900Z,52.77
2019-01-30T05:21:47.297Z,61.63
2019-01-30T05:24:14.736Z,48.77
2019-01-30T05:26:42.283Z,52.27
2019-01-30T05:29:09.690Z,56.53
2019-01-30T05:31:37.146Z,50.57
2019-01-30T05:34:04.702Z,58.23
2019-01-30T05:36:32.161Z,54.83
2019-01-30T05:38:59.604Z,54.80
2019-01-30T05:41:27.051Z,49.33
2019-01-30T05:43:54.427Z,61.70
2019-01-30T05:46:21.911Z,57.20
2019-01-30T05:48:49.463Z,51.87
2019-01-30T05:51:16.837Z,49.37
2019-01-30T05:53:44.343Z,51.13
2019-01-30T05:56:11.878Z,54.33
2019-01-30T05:58:39.276Z,63.83
2019-01-30T06:01:06.733Z,58.13
2019-01-30T06:03:34.302Z,63.50
2019-01-30T06:06:01.672Z,61.97
2019-01-30T06:08:29.720Z,80.73
2019-01-30T06:10:57.236Z,78.60
2019-01-30T06:13:24.733Z,80.83
2019-01-30T06:15:52.217Z,88.37
2019-01-30T06:18:19.579Z,75.90
2019-01-30T06:20:47.020Z,79.67
2019-01-30T06:23:14.496Z,78.60
2019-01-30T06:25:42.070Z,75.97
2019-01-30T06:28:09.439Z,67.97
2019-01-30T06:30:36.901Z,65.87
2019-01-30T06:33:04.496Z,67.57
2019-01-30T06:35:32.178Z,66.80
2019-01-30T06:37:59.635Z,64.80
2019-01-30T06:40:29.963Z,67.73
2019-01-30T06:42:57.638Z,63.10
2019-01-30T06:45:25.321Z,69.83
2019-01-30T06:47:53.009Z,61.70
2019-01-30T06:50:20.891Z,78.80
2019-01-30T06:52:48.327Z,69.33
2019-01-30T06:55:15.711Z,55.07
2019-01-30T06:57:43.160Z,53.20
2019-01-30T07:00:18.582Z,50.13
2019-01-30T07:02:46.482Z,54.33
2019-01-30T07:05:14.159Z,75.03
2019-01-30T07:07:41.610Z,53.63
2019-01-30T07:10:13.324Z,64.30
2019-01-30T07:12:40.794Z,56.80
2019-01-30T07:15:08.441Z,50.80
2019-01-30T07:17:36.011Z,56.60
2019-01-30T07:20:04.602Z,59.83
2019-01-30T07:22:32.028Z,51.67
2019-01-30T07:24:59.419Z,65.67
2019-01-30T07:27:26.867Z,60.83
2019-01-30T07:29:54.368Z,58.77
2019-01-30T07:32:21.797Z,56.97
2019-01-30T07:34:49.236Z,78.50
2019-01-30T07:37:16.779Z,68.70
2019-01-30T07:39:44.209Z,68.60
2019-01-30T07:42:11.702Z,79.67
2019-01-30T07:44:39.135Z,69.47
2019-01-30T07:47:06.709Z,67.53
2019-01-30T07:49:34.101Z,63.17
2019-01-30T07:52:01.681Z,78.90
2019-01-30T07:54:29.217Z,73.23
2019-01-30T07:56:56.705Z,74.63
2019-01-30T07:59:24.138Z,78.83
2019-01-30T08:01:51.731Z,61.97
2019-01-30T08:04:19.174Z,62.43
2019-01-30T08:06:46.704Z,74.80
2019-01-30T08:09:14.146Z,66.80
2019-01-30T08:11:41.609Z,65.63
2019-01-30T08:14:09.124Z,66.23
2019-01-30T08:16:36.544Z,59.10
2019-01-30T08:19:04.152Z,61.97
2019-01-30T08:21:31.626Z,58.70
2019-01-30T08:23:59.466Z,51.57
2019-01-30T08:26:26.892Z,51.20
2019-01-30T08:28:54.388Z,42.00
2019-01-30T08:31:21.867Z,59.03
2019-01-30T08:33:49.329Z,58.77
2019-01-30T08:36:16.766Z,57.93
2019-01-30T08:38:44.248Z,48.97
2019-01-30T08:41:11.756Z,55.43
2019-01-30T08:43:39.142Z,53.23
2019-01-30T08:46:06.678Z,51.03
2019-01-30T08:48:34.252Z,52.17
2019-01-30T08:51:01.954Z,49.00
2019-01-30T08:53:29.577Z,55.40
2019-01-30T08:55:57.096Z,42.33
2019-01-30T08:58:24.453Z,54.90
2019-01-30T09:00:51.984Z,68.70
2019-01-30T09:03:19.528Z,40.53
2019-01-30T09:05:46.991Z,47.43
2019-01-30T09:08:14.603Z,39.30
2019-01-30T09:10:42.176Z,59.57
2019-01-30T09:13:09.642Z,56.83
2019-01-30T09:15:37.388Z,65.73
2019-01-30T09:18:05.224Z,52.37
2019-01-30T09:20:32.748Z,22.20
2019-01-30T09:23:00.146Z,57.93
2019-01-30T09:25:29.131Z,31.10
2019-01-30T09:27:57.015Z,70.47
2019-01-30T09:30:33.273Z,33.97
2019-01-30T09:33:00.749Z,32.17
2019-01-30T09:35:28.238Z,26.87
2019-01-30T09:37:56.175Z,21.47
2019-01-30T09:40:24.030Z,30.87
2019-01-30T09:42:51.490Z,22.80
2019-01-30T09:45:19.162Z,29.57
2019-01-30T09:47:46.618Z,18.77
2019-01-30T09:50:17.376Z,14.57
2019-01-30T09:52:44.880Z,21.97
2019-01-30T09:55:13.360Z,27.10
2019-01-30T09:57:40.801Z,24.90
2019-01-30T10:00:18.711Z,21.03
2019-01-30T10:02:46.289Z,28.17
2019-01-30T10:05:13.899Z,19.00
2019-01-30T10:07:41.345Z,22.53
2019-01-30T10:10:15.120Z,24.77
2019-01-30T10:12:42.623Z,28.93
2019-01-30T10:15:11.134Z,27.47
2019-01-30T10:17:38.629Z,36.50
2019-01-30T10:20:09.365Z,26.53
2019-01-30T10:22:36.789Z,23.23
2019-01-30T10:25:05.116Z,20.13
2019-01-30T10:27:32.582Z,12.30
2019-01-30T10:30:00.210Z,21.63
2019-01-30T10:32:27.835Z,16.97
2019-01-30T10:34:55.196Z,12.07
2019-01-30T10:37:22.809Z,17.97
2019-01-30T10:39:50.644Z,21.13
2019-01-30T10:42:18.049Z,10.07
2019-01-30T10:44:45.557Z,16.53
2019-01-30T10:47:13.124Z,16.77
2019-01-30T10:49:40.697Z,10.80
2019-01-30T10:52:08.239Z,11.50
2019-01-30T10:54:35.773Z,13.17
2019-01-30T10:57:03.728Z,11.90
2019-01-30T10:59:31.321Z,15.83
2019-01-30T11:01:58.888Z,13.60
2019-01-30T11:04:26.314Z,12.30
2019-01-30T11:06:53.745Z,8.37
2019-01-30T11:09:21.275Z,11.67
2019-01-30T11:11:48.786Z,16.83
2019-01-30T11:14:16.207Z,14.07
2019-01-30T11:16:43.660Z,12.13
2019-01-30T11:19:11.173Z,12.30
2019-01-30T11:21:38.636Z,15.43
2019-01-30T11:24:06.064Z,14.50
2019-01-30T11:26:33.641Z,11.63
2019-01-30T11:29:01.189Z,10.30
2019-01-30T11:31:28.680Z,9.93
2019-01-30T11:33:56.099Z,13.87
2019-01-30T11:36:23.593Z,12.70
2019-01-30T11:38:51.013Z,11.63
2019-01-30T11:41:18.495Z,9.07
2019-01-30T11:43:46.011Z,12.77
2019-01-30T11:46:13.706Z,14.47
2019-01-30T11:48:41.249Z,14.57
2019-01-30T11:51:08.803Z,12.73
2019-01-30T11:53:36.583Z,16.27
2019-01-30T11:56:05.065Z,14.90
2019-01-30T11:58:32.719Z,25.10
2019-01-30T12:01:03.369Z,13.20
2019-01-30T12:03:30.967Z,12.87
2019-01-30T12:05:58.414Z,12.00
2019-01-30T12:08:25.970Z,15.90
2019-01-30T12:10:53.441Z,11.00
2019-01-30T12:13:21.191Z,10.87
2019-01-30T12:15:48.828Z,15.67
2019-01-30T12:18:16.389Z,13.73
2019-01-30T12:20:43.970Z,13.07
2019-01-30T12:23:11.362Z,15.93
2019-01-30T12:25:38.815Z,14.20
2019-01-30T12:28:06.383Z,12.23
2019-01-30T12:30:33.829Z,10.47
2019-01-30T12:33:01.287Z,14.70
2019-01-30T12:35:28.781Z,13.70
2019-01-30T12:37:56.273Z,10.67
2019-01-30T12:40:24.337Z,8.53
2019-01-30T12:42:51.950Z,9.97
2019-01-30T12:45:38.199Z,14.47
2019-01-30T12:48:07.099Z,15.93
2019-01-30T12:50:34.691Z,14.57
2019-01-30T12:53:02.181Z,15.17
2019-01-30T12:55:30.105Z,14.90
2019-01-30T12:57:57.631Z,13.57
2019-01-30T13:00:31.046Z,15.80
2019-01-30T13:02:58.643Z,10.03
2019-01-30T13:05:28.659Z,13.27
2019-01-30T13:07:56.119Z,10.93
2019-01-30T13:10:23.696Z,13.47
2019-01-30T13:12:51.248Z,12.63
2019-01-30T13:15:19.926Z,8.13
2019-01-30T13:17:47.431Z,15.10
2019-01-30T13:20:16.716Z,14.63
2019-01-30T13:22:44.411Z,11.93
2019-01-30T13:25:12.852Z,15.87
2019-01-30T13:27:40.376Z,19.23
2019-01-30T13:30:12.338Z,18.27
2019-01-30T13:32:39.801Z,24.63
2019-01-30T13:35:07.453Z,21.93
2019-01-30T13:37:34.873Z,26.40
2019-01-30T13:40:03.005Z,23.87
2019-01-30T13:42:30.458Z,23.97
2019-01-30T13:44:57.830Z,26.90
2019-01-30T13:47:25.281Z,22.77
2019-01-30T13:49:52.851Z,20.23
2019-01-30T13:52:20.266Z,30.13
2019-01-30T13:54:47.756Z,27.30
2019-01-30T13:57:15.202Z,34.30
2019-01-30T13:59:42.667Z,25.07
2019-01-30T14:02:10.348Z,26.60
2019-01-30T14:04:37.793Z,29.27
2019-01-30T14:07:05.281Z,21.47
2019-01-30T14:09:32.767Z,20.30
2019-01-30T14:12:00.380Z,24.73
2019-01-30T14:14:27.833Z,18.67
2019-01-30T14:16:55.290Z,17.53
2019-01-30T14:19:22.761Z,23.27
2019-01-30T14:21:50.265Z,19.00
2019-01-30T14:24:17.703Z,21.73
2019-01-30T14:26:45.214Z,25.60
2019-01-30T14:29:12.721Z,25.30
2019-01-30T14:31:40.561Z,27.73
2019-01-30T14:34:09.113Z,28.60
2019-01-30T14:36:36.663Z,27.93
2019-01-30T14:39:07.660Z,28.13
2019-01-30T14:41:35.295Z,33.87
2019-01-30T14:44:02.938Z,28.53
2019-01-30T14:46:30.354Z,30.20
2019-01-30T14:48:57.799Z,27.37
2019-01-30T14:51:25.334Z,28.90
2019-01-30T14:53:52.768Z,27.40
2019-01-30T14:56:20.217Z,29.70
2019-01-30T14:58:47.875Z,33.10
2019-01-30T15:01:15.433Z,28.60
2019-01-30T15:03:43.063Z,19.50
2019-01-30T15:06:10.572Z,21.73
2019-01-30T15:08:38.061Z,17.37
2019-01-30T15:11:05.842Z,17.87
2019-01-30T15:13:33.326Z,23.90
2019-01-30T15:16:00.968Z,22.87
2019-01-30T15:18:28.389Z,18.43
2019-01-30T15:20:55.790Z,25.37
2019-01-30T15:23:23.214Z,29.73
2019-01-30T15:25:50.723Z,30.13
2019-01-30T15:28:18.118Z,24.97
2019-01-30T15:30:47.072Z,28.60
2019-01-30T15:33:14.769Z,36.40
2019-01-30T15:35:42.433Z,46.70
2019-01-30T15:38:12.459Z,28.43
2019-01-30T15:40:40.680Z,42.73
2019-01-30T15:43:08.116Z,29.63
2019-01-30T15:45:35.650Z,36.30
2019-01-30T15:48:03.521Z,33.53
2019-01-30T15:50:31.956Z,33.57
2019-01-30T15:53:01.254Z,32.57
2019-01-30T15:55:28.846Z,30.70
2019-01-30T15:58:02.589Z,34.10
2019-01-30T16:00:35.761Z,39.70
2019-01-30T16:03:03.404Z,27.60
2019-01-30T16:05:31.158Z,26.13
2019-01-30T16:07:58.680Z,26.17
2019-01-30T16:10:26.417Z,30.63
2019-01-30T16:12:53.910Z,29.60
2019-01-30T16:15:24.750Z,29.60
2019-01-30T16:17:52.273Z,22.67
2019-01-30T16:20:19.919Z,23.77
2019-01-30T16:22:47.508Z,27.30
2019-01-30T16:25:15.385Z,20.97
2019-01-30T16:27:42.907Z,21.30
2019-01-30T16:30:14.405Z,22.83
2019-01-30T16:32:41.992Z,20.50
2019-01-30T16:35:12.073Z,19.83
2019-01-30T16:37:39.655Z,20.53
2019-01-30T16:40:08.929Z,21.90
2019-01-30T16:42:36.396Z,22.80
2019-01-30T16:45:05.406Z,22.13
2019-01-30T16:47:32.829Z,21.23
2019-01-30T16:50:04.767Z,19.33
2019-01-30T16:52:36.064Z,24.03
2019-01-30T16:55:04.289Z,22.23
2019-01-30T16:57:36.078Z,23.27
2019-01-30T17:00:06.079Z,46.97
2019-01-30T17:02:33.639Z,44.50
2019-01-30T17:05:01.099Z,27.10
2019-01-30T17:07:28.703Z,33.40
2019-01-30T17:09:56.127Z,23.23
2019-01-30T17:12:23.661Z,25.23
2019-01-30T17:14:51.107Z,104.43
2019-01-30T17:17:18.604Z,135.60
2019-01-30T17:19:46.294Z,125.60
2019-01-30T17:22:13.944Z,127.53
2019-01-30T17:24:41.345Z,126.30
2019-01-30T17:27:08.937Z,68.57
2019-01-30T17:29:36.394Z,72.63
2019-01-30T17:32:08.185Z,49.83
2019-01-30T17:34:41.932Z,40.13
2019-01-30T17:37:09.766Z,31.40
2019-01-30T17:39:42.724Z,25.23
2019-01-30T17:42:14.870Z,20.90
2019-01-30T17:44:48.034Z,23.53
2019-01-30T17:47:15.506Z,30.23
2019-01-30T17:49:42.949Z,37.23
2019-01-30T17:52:12.480Z,26.60
2019-01-30T17:54:48.169Z,31.40
2019-01-30T17:57:15.788Z,29.87
2019-01-30T17:59:49.190Z,29.97
2019-01-30T18:02:17.127Z,32.50
2019-01-30T18:04:44.728Z,36.20
2019-01-30T18:07:12.169Z,32.87
2019-01-30T18:09:39.749Z,35.67
2019-01-30T18:12:07.206Z,32.27
2019-01-30T18:14:34.683Z,37.83
2019-01-30T18:17:02.063Z,44.13
2019-01-30T18:19:29.790Z,35.63
2019-01-30T18:21:57.207Z,35.57
2019-01-30T18:24:24.705Z,37.70
2019-01-30T18:26:52.162Z,43.00
2019-01-30T18:29:19.631Z,29.23
2019-01-30T18:31:47.116Z,32.83
2019-01-30T18:34:14.632Z,28.23
2019-01-30T18:36:42.130Z,32.10
2019-01-30T18:39:09.831Z,32.83
2019-01-30T18:41:37.534Z,25.40
2019-01-30T18:44:05.135Z,23.53
2019-01-30T18:46:32.611Z,21.93
2019-01-30T18:49:00.087Z,19.13
2019-01-30T18:51:27.535Z,18.07
2019-01-30T18:53:54.993Z,15.87
2019-01-30T18:56:22.652Z,13.30
2019-01-30T18:58:50.168Z,14.27
2019-01-30T19:01:17.618Z,17.10
2019-01-30T19:03:44.990Z,14.27
2019-01-30T19:06:12.444Z,15.40
2019-01-30T19:08:40.903Z,11.70
2019-01-30T19:11:08.450Z,11.40
2019-01-30T19:13:35.878Z,12.87
2019-01-30T19:16:03.855Z,10.53
2019-01-30T19:18:31.334Z,12.17
2019-01-30T19:20:58.807Z,8.77
2019-01-30T19:23:26.163Z,9.07
2019-01-30T19:25:53.595Z,13.50
2019-01-30T19:28:21.561Z,10.50
2019-01-30T19:30:49.051Z,10.93
2019-01-30T19:33:16.636Z,10.00
2019-01-30T19:35:44.239Z,12.03
2019-01-30T19:38:11.723Z,11.20
2019-01-30T19:40:39.279Z,11.13
2019-01-30T19:43:06.853Z,9.47
2019-01-30T19:45:34.338Z,17.70
2019-01-30T19:48:02.011Z,10.27
2019-01-30T19:50:30.086Z,14.60
2019-01-30T19:52:58.637Z,9.53
2019-01-30T19:55:26.414Z,13.27
2019-01-30T19:57:54.242Z,11.60
2019-01-30T20:00:27.450Z,11.93
2019-01-30T20:02:55.131Z,9.30
2019-01-30T20:05:22.936Z,9.53
2019-01-30T20:07:50.641Z,10.20
2019-01-30T20:10:23.813Z,9.83
2019-01-30T20:12:51.621Z,9.63
2019-01-30T20:15:19.310Z,8.70
2019-01-30T20:17:46.903Z,9.60
2019-01-30T20:20:15.879Z,8.17
2019-01-30T20:22:43.418Z,7.80
2019-01-30T20:25:14.345Z,9.53
2019-01-30T20:27:55.236Z,7.40
2019-01-30T20:30:26.072Z,7.73
2019-01-30T20:32:53.691Z,7.67
2019-01-30T20:35:21.402Z,7.10
2019-01-30T20:37:48.823Z,7.57
2019-01-30T20:40:21.908Z,6.80
2019-01-30T20:42:55.350Z,6.90
2019-01-30T20:45:33.559Z,6.83
2019-01-30T20:47:52.721Z,5.87
2019-01-30T20:50:25.252Z,5.63
2019-01-30T20:52:57.873Z,7.80
2019-01-30T20:55:33.898Z,7.50
2019-01-30T20:58:07.434Z,7.83
2019-01-30T21:00:37.090Z,5.23
2019-01-30T21:03:06.444Z,6.80
2019-01-30T21:05:44.847Z,6.30
2019-01-30T21:08:11.501Z,6.73
2019-01-30T21:10:40.846Z,4.90
2019-01-30T21:13:09.988Z,7.13
2019-01-30T21:15:37.403Z,5.10
2019-01-30T21:18:05.089Z,6.53
2019-01-30T21:20:32.897Z,8.93
2019-01-30T21:23:00.479Z,8.93
2019-01-30T21:25:27.938Z,7.73
2019-01-30T21:27:55.379Z,8.00
2019-01-30T21:30:25.404Z,6.60
2019-01-30T21:32:52.887Z,6.63
2019-01-30T21:35:20.365Z,5.03
2019-01-30T21:37:49.038Z,7.90
2019-01-30T21:40:17.296Z,6.07
2019-01-30T21:42:44.969Z,6.77
2019-01-30T21:45:15.174Z,8.03
2019-01-30T21:47:42.544Z,5.37
2019-01-30T21:50:10.517Z,7.03
2019-01-30T21:52:38.136Z,5.30
2019-01-30T21:55:07.387Z,5.90
2019-01-30T21:57:34.752Z,4.17
2019-01-30T22:00:02.324Z,5.70
2019-01-30T22:02:29.771Z,4.20
2019-01-30T22:04:57.193Z,5.10
2019-01-30T22:07:24.566Z,3.93
2019-01-30T22:09:52.110Z,4.60
2019-01-30T22:12:19.571Z,5.73
2019-01-30T22:14:47.047Z,4.37
2019-01-30T22:17:14.600Z,5.03
2019-01-30T22:19:42.069Z,3.90
2019-01-30T22:22:09.533Z,7.60
2019-01-30T22:24:37.104Z,3.87
2019-01-30T22:27:04.520Z,4.23
2019-01-30T22:29:31.966Z,5.10
2019-01-30T22:31:59.430Z,5.60
2019-01-30T22:34:26.859Z,4.20
2019-01-30T22:36:54.341Z,5.10
2019-01-30T22:39:21.790Z,5.17
2019-01-30T22:41:49.227Z,5.23
2019-01-30T22:44:16.633Z,4.97
2019-01-30T22:46:44.055Z,8.13
2019-01-30T22:49:11.500Z,6.80
2019-01-30T22:51:38.956Z,6.70
2019-01-30T22:54:06.457Z,6.67
2019-01-30T22:56:33.887Z,5.43
2019-01-30T22:59:01.317Z,5.83
2019-01-30T23:01:37.612Z,5.20
2019-01-30T23:04:41.593Z,5.17
2019-01-30T23:07:40.121Z,6.43
2019-01-30T23:10:53.954Z,5.27
2019-01-30T23:14:01.693Z,5.83
2019-01-30T23:17:04.257Z,7.10
2019-01-30T23:19:49.026Z,5.70
2019-01-30T23:23:08.378Z,6.13
2019-01-30T23:25:52.820Z,5.33
2019-01-30T23:29:20.143Z,4.80
2019-01-30T23:32:05.946Z,6.87
2019-01-30T23:35:15.441Z,4.73
2019-01-30T23:38:36.602Z,5.10
2019-01-30T23:41:31.667Z,5.20
2019-01-30T23:44:45.692Z,4.40
2019-01-30T23:47:42.034Z,5.57
2019-01-30T23:50:59.972Z,7.50
2019-01-30T23:53:59.664Z,5.40
2019-01-30T23:57:04.443Z,6.37
2019-01-30T23:59:48.593Z,5.10
